sensor_id;sensor_type;location;lat;lon;timestamp;P1;durP1;ratioP1;P2;durP2;ratioP2
30605;SDS011;17371;51.328;3.860;2023-03-01T00:01:11;15.10;;;9.18;;
30605;SDS011;17371;51.328;3.860;2023-03-01T00:03:37;15.60;;;7.80;;
30605;SDS011;17371;51.328;3.860;2023-03-01T00:06:03;17.10;;;9.63;;
30605;SDS011;17371;51.328;3.860;2023-03-01T00:08:29;9.40;;;6.20;;
30605;SDS011;17371;51.328;3.860;2023-03-01T00:11:02;17.40;;;10.57;;
30605;SDS011;17371;51.328;3.860;2023-03-01T00:13:28;13.95;;;7.32;;
30605;SDS011;17371;51.328;3.860;2023-03-01T00:15:55;10.80;;;7.63;;
30605;SDS011;17371;51.328;3.860;2023-03-01T00:18:21;16.70;;;9.90;;
30605;SDS011;17371;51.328;3.860;2023-03-01T00:20:49;22.47;;;11.23;;
30605;SDS011;17371;51.328;3.860;2023-03-01T00:23:14;15.50;;;7.63;;
30605;SDS011;17371;51.328;3.860;2023-03-01T00:25:41;18.97;;;10.67;;
30605;SDS011;17371;51.328;3.860;2023-03-01T00:28:06;18.15;;;10.73;;
30605;SDS011;17371;51.328;3.860;2023-03-01T00:30:32;15.27;;;8.00;;
30605;SDS011;17371;51.328;3.860;2023-03-01T00:32:59;22.10;;;10.85;;
30605;SDS011;17371;51.328;3.860;2023-03-01T00:35:24;18.05;;;9.43;;
30605;SDS011;17371;51.328;3.860;2023-03-01T00:37:50;14.27;;;8.40;;
30605;SDS011;17371;51.328;3.860;2023-03-01T00:40:15;21.97;;;12.10;;
30605;SDS011;17371;51.328;3.860;2023-03-01T00:42:41;21.00;;;12.38;;
30605;SDS011;17371;51.328;3.860;2023-03-01T00:45:07;21.53;;;11.10;;
30605;SDS011;17371;51.328;3.860;2023-03-01T00:47:32;16.20;;;9.10;;
30605;SDS011;17371;51.328;3.860;2023-03-01T00:49:59;21.23;;;10.52;;
30605;SDS011;17371;51.328;3.860;2023-03-01T00:52:25;23.70;;;11.37;;
30605;SDS011;17371;51.328;3.860;2023-03-01T00:54:51;19.35;;;10.93;;
30605;SDS011;17371;51.328;3.860;2023-03-01T00:57:17;16.97;;;9.60;;
30605;SDS011;17371;51.328;3.860;2023-03-01T00:59:43;20.42;;;11.27;;
30605;SDS011;17371;51.328;3.860;2023-03-01T01:02:08;24.08;;;12.25;;
30605;SDS011;17371;51.328;3.860;2023-03-01T01:04:33;19.13;;;10.87;;
30605;SDS011;17371;51.328;3.860;2023-03-01T01:07:00;20.83;;;11.77;;
30605;SDS011;17371;51.328;3.860;2023-03-01T01:09:25;22.33;;;11.05;;
30605;SDS011;17371;51.328;3.860;2023-03-01T01:11:51;21.70;;;12.23;;
30605;SDS011;17371;51.328;3.860;2023-03-01T01:14:17;24.20;;;12.93;;
30605;SDS011;17371;51.328;3.860;2023-03-01T01:16:42;23.05;;;12.05;;
30605;SDS011;17371;51.328;3.860;2023-03-01T01:19:08;22.67;;;12.23;;
30605;SDS011;17371;51.328;3.860;2023-03-01T01:21:34;25.90;;;12.95;;
30605;SDS011;17371;51.328;3.860;2023-03-01T01:24:02;23.07;;;12.20;;
30605;SDS011;17371;51.328;3.860;2023-03-01T01:26:28;20.35;;;11.38;;
30605;SDS011;17371;51.328;3.860;2023-03-01T01:28:54;23.83;;;11.93;;
30605;SDS011;17371;51.328;3.860;2023-03-01T01:31:20;25.70;;;12.32;;
30605;SDS011;17371;51.328;3.860;2023-03-01T01:33:46;23.67;;;12.57;;
30605;SDS011;17371;51.328;3.860;2023-03-01T01:36:12;25.73;;;10.80;;
30605;SDS011;17371;51.328;3.860;2023-03-01T01:38:37;17.63;;;9.73;;
30605;SDS011;17371;51.328;3.860;2023-03-01T01:41:05;20.58;;;11.50;;
30605;SDS011;17371;51.328;3.860;2023-03-01T01:43:33;26.15;;;13.25;;
30605;SDS011;17371;51.328;3.860;2023-03-01T01:46:01;23.02;;;11.45;;
30605;SDS011;17371;51.328;3.860;2023-03-01T01:48:29;22.87;;;13.37;;
30605;SDS011;17371;51.328;3.860;2023-03-01T01:50:59;25.48;;;13.15;;
30605;SDS011;17371;51.328;3.860;2023-03-01T01:53:26;23.52;;;12.27;;
30605;SDS011;17371;51.328;3.860;2023-03-01T01:55:52;26.20;;;14.68;;
30605;SDS011;17371;51.328;3.860;2023-03-01T01:58:20;24.08;;;13.25;;
30605;SDS011;17371;51.328;3.860;2023-03-01T02:00:46;23.95;;;13.00;;
30605;SDS011;17371;51.328;3.860;2023-03-01T02:03:13;18.35;;;10.43;;
30605;SDS011;17371;51.328;3.860;2023-03-01T02:05:42;28.45;;;12.98;;
30605;SDS011;17371;51.328;3.860;2023-03-01T02:08:10;20.40;;;11.47;;
30605;SDS011;17371;51.328;3.860;2023-03-01T02:10:37;18.90;;;10.13;;
30605;SDS011;17371;51.328;3.860;2023-03-01T02:13:03;16.90;;;9.75;;
30605;SDS011;17371;51.328;3.860;2023-03-01T02:15:32;23.93;;;12.63;;
30605;SDS011;17371;51.328;3.860;2023-03-01T02:17:58;21.77;;;11.60;;
30605;SDS011;17371;51.328;3.860;2023-03-01T02:20:26;13.40;;;7.07;;
30605;SDS011;17371;51.328;3.860;2023-03-01T02:22:53;21.73;;;11.52;;
30605;SDS011;17371;51.328;3.860;2023-03-01T02:25:31;20.17;;;10.48;;
30605;SDS011;17371;51.328;3.860;2023-03-01T02:28:02;22.15;;;12.38;;
30605;SDS011;17371;51.328;3.860;2023-03-01T02:30:33;20.42;;;11.23;;
30605;SDS011;17371;51.328;3.860;2023-03-01T02:32:58;21.90;;;11.90;;
30605;SDS011;17371;51.328;3.860;2023-03-01T02:35:25;26.25;;;11.77;;
30605;SDS011;17371;51.328;3.860;2023-03-01T02:37:51;26.27;;;14.50;;
30605;SDS011;17371;51.328;3.860;2023-03-01T02:42:45;26.20;;;13.48;;
30605;SDS011;17371;51.328;3.860;2023-03-01T02:45:14;27.23;;;14.05;;
30605;SDS011;17371;51.328;3.860;2023-03-01T02:47:40;25.30;;;12.63;;
30605;SDS011;17371;51.328;3.860;2023-03-01T02:50:11;25.10;;;13.10;;
30605;SDS011;17371;51.328;3.860;2023-03-01T02:52:43;30.47;;;13.87;;
30605;SDS011;17371;51.328;3.860;2023-03-01T02:55:13;26.42;;;13.48;;
30605;SDS011;17371;51.328;3.860;2023-03-01T02:57:40;21.50;;;11.75;;
30605;SDS011;17371;51.328;3.860;2023-03-01T03:00:07;24.92;;;11.45;;
30605;SDS011;17371;51.328;3.860;2023-03-01T03:02:34;24.65;;;11.98;;
30605;SDS011;17371;51.328;3.860;2023-03-01T03:05:02;27.00;;;13.73;;
30605;SDS011;17371;51.328;3.860;2023-03-01T03:07:28;16.85;;;8.88;;
30605;SDS011;17371;51.328;3.860;2023-03-01T03:09:54;26.47;;;14.53;;
30605;SDS011;17371;51.328;3.860;2023-03-01T03:12:19;25.53;;;14.17;;
30605;SDS011;17371;51.328;3.860;2023-03-01T03:14:44;24.17;;;12.57;;
30605;SDS011;17371;51.328;3.860;2023-03-01T03:17:10;26.45;;;13.38;;
30605;SDS011;17371;51.328;3.860;2023-03-01T03:19:35;26.30;;;12.40;;
30605;SDS011;17371;51.328;3.860;2023-03-01T03:22:02;16.70;;;9.23;;
30605;SDS011;17371;51.328;3.860;2023-03-01T03:24:27;24.65;;;12.45;;
30605;SDS011;17371;51.328;3.860;2023-03-01T03:26:53;21.83;;;11.27;;
30605;SDS011;17371;51.328;3.860;2023-03-01T03:29:18;17.50;;;9.87;;
30605;SDS011;17371;51.328;3.860;2023-03-01T03:31:43;24.17;;;11.10;;
30605;SDS011;17371;51.328;3.860;2023-03-01T03:34:09;13.57;;;6.90;;
30605;SDS011;17371;51.328;3.860;2023-03-01T03:36:34;22.33;;;10.00;;
30605;SDS011;17371;51.328;3.860;2023-03-01T03:39:01;23.80;;;12.17;;
30605;SDS011;17371;51.328;3.860;2023-03-01T03:41:26;24.67;;;13.93;;
30605;SDS011;17371;51.328;3.860;2023-03-01T03:43:51;22.47;;;12.33;;
30605;SDS011;17371;51.328;3.860;2023-03-01T03:46:17;12.20;;;6.87;;
30605;SDS011;17371;51.328;3.860;2023-03-01T03:48:43;14.32;;;7.57;;
30605;SDS011;17371;51.328;3.860;2023-03-01T03:51:09;17.90;;;8.57;;
30605;SDS011;17371;51.328;3.860;2023-03-01T03:53:35;18.00;;;10.23;;
30605;SDS011;17371;51.328;3.860;2023-03-01T03:56:01;15.37;;;7.43;;
30605;SDS011;17371;51.328;3.860;2023-03-01T03:58:27;14.52;;;8.05;;
30605;SDS011;17371;51.328;3.860;2023-03-01T04:00:53;16.47;;;8.77;;
30605;SDS011;17371;51.328;3.860;2023-03-01T04:03:19;13.77;;;7.65;;
30605;SDS011;17371;51.328;3.860;2023-03-01T04:05:45;19.90;;;9.68;;
30605;SDS011;17371;51.328;3.860;2023-03-01T04:08:11;20.70;;;9.97;;
30605;SDS011;17371;51.328;3.860;2023-03-01T04:10:37;21.88;;;11.65;;
30605;SDS011;17371;51.328;3.860;2023-03-01T04:13:06;14.32;;;6.68;;
30605;SDS011;17371;51.328;3.860;2023-03-01T04:15:32;17.10;;;8.23;;
30605;SDS011;17371;51.328;3.860;2023-03-01T04:17:58;19.02;;;11.23;;
30605;SDS011;17371;51.328;3.860;2023-03-01T04:20:24;19.60;;;11.15;;
30605;SDS011;17371;51.328;3.860;2023-03-01T04:22:51;21.80;;;10.45;;
30605;SDS011;17371;51.328;3.860;2023-03-01T04:25:17;19.77;;;11.25;;
30605;SDS011;17371;51.328;3.860;2023-03-01T04:27:43;18.43;;;9.23;;
30605;SDS011;17371;51.328;3.860;2023-03-01T04:30:10;20.50;;;10.60;;
30605;SDS011;17371;51.328;3.860;2023-03-01T04:32:36;16.58;;;9.45;;
30605;SDS011;17371;51.328;3.860;2023-03-01T04:35:01;20.23;;;11.27;;
30605;SDS011;17371;51.328;3.860;2023-03-01T04:37:27;17.73;;;10.57;;
30605;SDS011;17371;51.328;3.860;2023-03-01T04:39:52;21.17;;;11.33;;
30605;SDS011;17371;51.328;3.860;2023-03-01T04:42:18;19.52;;;11.20;;
30605;SDS011;17371;51.328;3.860;2023-03-01T04:44:43;21.27;;;10.70;;
30605;SDS011;17371;51.328;3.860;2023-03-01T04:47:11;13.45;;;7.20;;
30605;SDS011;17371;51.328;3.860;2023-03-01T04:49:36;19.85;;;9.35;;
30605;SDS011;17371;51.328;3.860;2023-03-01T04:52:02;14.23;;;7.67;;
30605;SDS011;17371;51.328;3.860;2023-03-01T04:54:27;20.10;;;10.80;;
30605;SDS011;17371;51.328;3.860;2023-03-01T04:56:53;18.23;;;9.33;;
30605;SDS011;17371;51.328;3.860;2023-03-01T04:59:18;16.67;;;10.23;;
30605;SDS011;17371;51.328;3.860;2023-03-01T05:01:44;18.47;;;10.27;;
30605;SDS011;17371;51.328;3.860;2023-03-01T05:04:10;16.37;;;9.83;;
30605;SDS011;17371;51.328;3.860;2023-03-01T05:06:36;16.13;;;9.27;;
30605;SDS011;17371;51.328;3.860;2023-03-01T05:09:01;20.33;;;9.83;;
30605;SDS011;17371;51.328;3.860;2023-03-01T05:11:27;22.47;;;10.07;;
30605;SDS011;17371;51.328;3.860;2023-03-01T05:13:52;19.93;;;9.73;;
30605;SDS011;17371;51.328;3.860;2023-03-01T05:16:17;21.73;;;9.43;;
30605;SDS011;17371;51.328;3.860;2023-03-01T05:18:43;21.65;;;11.77;;
30605;SDS011;17371;51.328;3.860;2023-03-01T05:21:10;18.33;;;8.43;;
30605;SDS011;17371;51.328;3.860;2023-03-01T05:23:37;13.70;;;6.90;;
30605;SDS011;17371;51.328;3.860;2023-03-01T05:26:03;13.18;;;7.65;;
30605;SDS011;17371;51.328;3.860;2023-03-01T05:28:30;20.88;;;10.07;;
30605;SDS011;17371;51.328;3.860;2023-03-01T05:30:55;21.40;;;11.25;;
30605;SDS011;17371;51.328;3.860;2023-03-01T05:33:21;23.40;;;12.00;;
30605;SDS011;17371;51.328;3.860;2023-03-01T05:35:47;17.58;;;9.57;;
30605;SDS011;17371;51.328;3.860;2023-03-01T05:38:15;17.17;;;9.48;;
30605;SDS011;17371;51.328;3.860;2023-03-01T05:40:41;19.70;;;9.37;;
30605;SDS011;17371;51.328;3.860;2023-03-01T05:43:07;18.33;;;9.88;;
30605;SDS011;17371;51.328;3.860;2023-03-01T05:45:32;11.85;;;6.30;;
30605;SDS011;17371;51.328;3.860;2023-03-01T05:47:58;10.02;;;5.63;;
30605;SDS011;17371;51.328;3.860;2023-03-01T05:50:24;16.40;;;7.83;;
30605;SDS011;17371;51.328;3.860;2023-03-01T05:52:51;19.98;;;9.73;;
30605;SDS011;17371;51.328;3.860;2023-03-01T05:55:21;19.33;;;10.07;;
30605;SDS011;17371;51.328;3.860;2023-03-01T05:57:47;18.15;;;9.75;;
30605;SDS011;17371;51.328;3.860;2023-03-01T06:00:13;17.63;;;9.10;;
30605;SDS011;17371;51.328;3.860;2023-03-01T06:02:39;16.23;;;7.90;;
30605;SDS011;17371;51.328;3.860;2023-03-01T06:05:05;14.60;;;7.30;;
30605;SDS011;17371;51.328;3.860;2023-03-01T06:07:32;19.50;;;10.15;;
30605;SDS011;17371;51.328;3.860;2023-03-01T06:09:57;20.55;;;10.63;;
30605;SDS011;17371;51.328;3.860;2023-03-01T06:12:24;16.73;;;9.27;;
30605;SDS011;17371;51.328;3.860;2023-03-01T06:14:49;13.87;;;6.90;;
30605;SDS011;17371;51.328;3.860;2023-03-01T06:17:15;18.92;;;7.75;;
30605;SDS011;17371;51.328;3.860;2023-03-01T06:19:40;16.63;;;8.47;;
30605;SDS011;17371;51.328;3.860;2023-03-01T06:22:06;16.67;;;9.40;;
30605;SDS011;17371;51.328;3.860;2023-03-01T06:24:31;19.55;;;9.98;;
30605;SDS011;17371;51.328;3.860;2023-03-01T06:26:57;19.63;;;8.10;;
30605;SDS011;17371;51.328;3.860;2023-03-01T06:29:23;20.57;;;10.13;;
30605;SDS011;17371;51.328;3.860;2023-03-01T06:31:49;14.50;;;7.70;;
30605;SDS011;17371;51.328;3.860;2023-03-01T06:34:14;21.00;;;8.97;;
30605;SDS011;17371;51.328;3.860;2023-03-01T06:36:40;16.40;;;9.27;;
30605;SDS011;17371;51.328;3.860;2023-03-01T06:39:05;18.00;;;8.50;;
30605;SDS011;17371;51.328;3.860;2023-03-01T06:41:31;19.63;;;9.77;;
30605;SDS011;17371;51.328;3.860;2023-03-01T06:43:56;7.93;;;4.60;;
30605;SDS011;17371;51.328;3.860;2023-03-01T06:46:23;16.58;;;8.77;;
30605;SDS011;17371;51.328;3.860;2023-03-01T06:48:49;18.95;;;9.02;;
30605;SDS011;17371;51.328;3.860;2023-03-01T06:51:14;16.52;;;8.75;;
30605;SDS011;17371;51.328;3.860;2023-03-01T06:53:39;18.10;;;8.95;;
30605;SDS011;17371;51.328;3.860;2023-03-01T06:56:05;14.73;;;7.60;;
30605;SDS011;17371;51.328;3.860;2023-03-01T06:58:31;16.90;;;8.33;;
30605;SDS011;17371;51.328;3.860;2023-03-01T07:00:56;16.58;;;8.57;;
30605;SDS011;17371;51.328;3.860;2023-03-01T07:03:23;16.13;;;7.22;;
30605;SDS011;17371;51.328;3.860;2023-03-01T07:05:48;16.73;;;8.83;;
30605;SDS011;17371;51.328;3.860;2023-03-01T07:08:14;17.95;;;8.43;;
30605;SDS011;17371;51.328;3.860;2023-03-01T07:10:39;16.70;;;9.53;;
30605;SDS011;17371;51.328;3.860;2023-03-01T07:13:05;17.10;;;8.70;;
30605;SDS011;17371;51.328;3.860;2023-03-01T07:15:30;14.53;;;8.13;;
30605;SDS011;17371;51.328;3.860;2023-03-01T07:17:55;15.87;;;8.17;;
30605;SDS011;17371;51.328;3.860;2023-03-01T07:20:23;13.32;;;6.65;;
30605;SDS011;17371;51.328;3.860;2023-03-01T07:22:48;15.57;;;7.70;;
30605;SDS011;17371;51.328;3.860;2023-03-01T07:25:13;18.23;;;10.20;;
30605;SDS011;17371;51.328;3.860;2023-03-01T07:27:39;16.83;;;8.83;;
30605;SDS011;17371;51.328;3.860;2023-03-01T07:30:05;18.93;;;9.07;;
30605;SDS011;17371;51.328;3.860;2023-03-01T07:32:31;14.35;;;7.32;;
30605;SDS011;17371;51.328;3.860;2023-03-01T07:34:56;16.00;;;8.27;;
30605;SDS011;17371;51.328;3.860;2023-03-01T07:37:23;15.93;;;8.00;;
30605;SDS011;17371;51.328;3.860;2023-03-01T07:39:49;14.85;;;8.30;;
30605;SDS011;17371;51.328;3.860;2023-03-01T07:42:14;10.60;;;5.87;;
30605;SDS011;17371;51.328;3.860;2023-03-01T07:44:39;17.20;;;8.80;;
30605;SDS011;17371;51.328;3.860;2023-03-01T07:47:05;17.03;;;9.37;;
30605;SDS011;17371;51.328;3.860;2023-03-01T07:49:30;8.53;;;4.13;;
30605;SDS011;17371;51.328;3.860;2023-03-01T07:51:55;18.50;;;8.80;;
30605;SDS011;17371;51.328;3.860;2023-03-01T07:54:22;14.53;;;8.00;;
30605;SDS011;17371;51.328;3.860;2023-03-01T07:56:47;14.83;;;8.50;;
30605;SDS011;17371;51.328;3.860;2023-03-01T07:59:13;16.73;;;8.93;;
30605;SDS011;17371;51.328;3.860;2023-03-01T08:01:38;15.13;;;8.13;;
30605;SDS011;17371;51.328;3.860;2023-03-01T08:04:04;11.83;;;7.33;;
30605;SDS011;17371;51.328;3.860;2023-03-01T08:06:29;11.47;;;7.13;;
30605;SDS011;17371;51.328;3.860;2023-03-01T08:08:55;15.83;;;9.00;;
30605;SDS011;17371;51.328;3.860;2023-03-01T08:11:21;11.52;;;6.60;;
30605;SDS011;17371;51.328;3.860;2023-03-01T08:13:47;16.00;;;8.13;;
30605;SDS011;17371;51.328;3.860;2023-03-01T08:16:13;15.55;;;8.45;;
30605;SDS011;17371;51.328;3.860;2023-03-01T08:18:40;8.50;;;5.45;;
30605;SDS011;17371;51.328;3.860;2023-03-01T08:21:06;18.13;;;8.73;;
30605;SDS011;17371;51.328;3.860;2023-03-01T08:23:33;13.90;;;6.60;;
30605;SDS011;17371;51.328;3.860;2023-03-01T08:26:05;16.98;;;9.18;;
30605;SDS011;17371;51.328;3.860;2023-03-01T08:28:33;14.10;;;8.20;;
30605;SDS011;17371;51.328;3.860;2023-03-01T08:30:58;15.55;;;8.63;;
30605;SDS011;17371;51.328;3.860;2023-03-01T08:33:24;10.73;;;6.73;;
30605;SDS011;17371;51.328;3.860;2023-03-01T08:35:49;14.50;;;7.82;;
30605;SDS011;17371;51.328;3.860;2023-03-01T08:38:14;8.80;;;5.30;;
30605;SDS011;17371;51.328;3.860;2023-03-01T08:40:40;17.00;;;8.03;;
30605;SDS011;17371;51.328;3.860;2023-03-01T08:43:05;10.67;;;5.53;;
30605;SDS011;17371;51.328;3.860;2023-03-01T08:45:32;12.13;;;6.30;;
30605;SDS011;17371;51.328;3.860;2023-03-01T08:47:57;10.57;;;5.22;;
30605;SDS011;17371;51.328;3.860;2023-03-01T08:50:23;15.30;;;8.67;;
30605;SDS011;17371;51.328;3.860;2023-03-01T08:52:48;10.97;;;5.63;;
30605;SDS011;17371;51.328;3.860;2023-03-01T08:55:13;8.75;;;4.63;;
30605;SDS011;17371;51.328;3.860;2023-03-01T08:57:39;12.90;;;7.00;;
30605;SDS011;17371;51.328;3.860;2023-03-01T09:00:05;11.03;;;7.10;;
30605;SDS011;17371;51.328;3.860;2023-03-01T09:02:33;12.55;;;6.78;;
30605;SDS011;17371;51.328;3.860;2023-03-01T09:04:58;8.93;;;5.63;;
30605;SDS011;17371;51.328;3.860;2023-03-01T09:07:24;10.10;;;6.25;;
30605;SDS011;17371;51.328;3.860;2023-03-01T09:09:49;9.27;;;5.90;;
30605;SDS011;17371;51.328;3.860;2023-03-01T09:12:14;10.87;;;6.20;;
30605;SDS011;17371;51.328;3.860;2023-03-01T09:14:40;14.07;;;7.10;;
30605;SDS011;17371;51.328;3.860;2023-03-01T09:17:05;14.80;;;8.30;;
30605;SDS011;17371;51.328;3.860;2023-03-01T09:19:32;17.00;;;7.93;;
30605;SDS011;17371;51.328;3.860;2023-03-01T09:21:57;14.25;;;7.05;;
30605;SDS011;17371;51.328;3.860;2023-03-01T09:24:23;7.17;;;3.93;;
30605;SDS011;17371;51.328;3.860;2023-03-01T09:26:49;8.48;;;5.38;;
30605;SDS011;17371;51.328;3.860;2023-03-01T09:29:15;17.00;;;8.20;;
30605;SDS011;17371;51.328;3.860;2023-03-01T09:31:41;11.60;;;7.22;;
30605;SDS011;17371;51.328;3.860;2023-03-01T09:34:07;17.58;;;9.60;;
30605;SDS011;17371;51.328;3.860;2023-03-01T09:36:34;19.20;;;8.03;;
30605;SDS011;17371;51.328;3.860;2023-03-01T09:38:59;15.13;;;6.78;;
30605;SDS011;17371;51.328;3.860;2023-03-01T09:41:29;12.63;;;7.05;;
30605;SDS011;17371;51.328;3.860;2023-03-01T09:44:05;12.80;;;7.65;;
30605;SDS011;17371;51.328;3.860;2023-03-01T09:46:36;9.53;;;5.43;;
30605;SDS011;17371;51.328;3.860;2023-03-01T09:49:07;9.85;;;5.40;;
30605;SDS011;17371;51.328;3.860;2023-03-01T09:51:37;19.27;;;9.63;;
30605;SDS011;17371;51.328;3.860;2023-03-01T09:54:02;10.48;;;5.55;;
30605;SDS011;17371;51.328;3.860;2023-03-01T09:56:29;12.68;;;6.78;;
30605;SDS011;17371;51.328;3.860;2023-03-01T09:58:58;11.00;;;5.50;;
30605;SDS011;17371;51.328;3.860;2023-03-01T10:01:29;9.88;;;4.88;;
30605;SDS011;17371;51.328;3.860;2023-03-01T10:04:00;13.52;;;7.20;;
30605;SDS011;17371;51.328;3.860;2023-03-01T10:06:39;9.85;;;5.20;;
30605;SDS011;17371;51.328;3.860;2023-03-01T10:09:10;12.70;;;7.18;;
30605;SDS011;17371;51.328;3.860;2023-03-01T10:11:38;9.90;;;6.03;;
30605;SDS011;17371;51.328;3.860;2023-03-01T10:14:05;6.85;;;4.40;;
30605;SDS011;17371;51.328;3.860;2023-03-01T10:16:38;11.63;;;6.97;;
30605;SDS011;17371;51.328;3.860;2023-03-01T10:19:08;11.00;;;6.20;;
30605;SDS011;17371;51.328;3.860;2023-03-01T10:21:38;9.45;;;5.22;;
30605;SDS011;17371;51.328;3.860;2023-03-01T10:24:10;8.50;;;4.70;;
30605;SDS011;17371;51.328;3.860;2023-03-01T10:26:39;11.00;;;5.28;;
30605;SDS011;17371;51.328;3.860;2023-03-01T10:29:19;10.25;;;5.78;;
30605;SDS011;17371;51.328;3.860;2023-03-01T10:31:48;7.07;;;3.67;;
30605;SDS011;17371;51.328;3.860;2023-03-01T10:34:15;7.82;;;4.97;;
30605;SDS011;17371;51.328;3.860;2023-03-01T10:36:44;7.77;;;4.23;;
30605;SDS011;17371;51.328;3.860;2023-03-01T10:39:14;7.10;;;4.32;;
30605;SDS011;17371;51.328;3.860;2023-03-01T10:41:54;11.85;;;5.15;;
30605;SDS011;17371;51.328;3.860;2023-03-01T10:44:41;12.00;;;4.63;;
30605;SDS011;17371;51.328;3.860;2023-03-01T10:47:16;7.00;;;4.55;;
30605;SDS011;17371;51.328;3.860;2023-03-01T10:49:51;10.30;;;4.67;;
30605;SDS011;17371;51.328;3.860;2023-03-01T10:52:19;9.60;;;5.63;;
30605;SDS011;17371;51.328;3.860;2023-03-01T10:54:50;12.05;;;6.47;;
30605;SDS011;17371;51.328;3.860;2023-03-01T10:57:24;11.23;;;6.28;;
30605;SDS011;17371;51.328;3.860;2023-03-01T11:00:00;8.95;;;4.88;;
30605;SDS011;17371;51.328;3.860;2023-03-01T11:02:35;11.47;;;4.23;;
30605;SDS011;17371;51.328;3.860;2023-03-01T11:05:01;9.02;;;5.45;;
30605;SDS011;17371;51.328;3.860;2023-03-01T11:07:29;7.43;;;4.77;;
30605;SDS011;17371;51.328;3.860;2023-03-01T11:09:55;9.57;;;5.00;;
30605;SDS011;17371;51.328;3.860;2023-03-01T11:12:20;7.30;;;4.40;;
30605;SDS011;17371;51.328;3.860;2023-03-01T11:14:46;9.77;;;4.50;;
30605;SDS011;17371;51.328;3.860;2023-03-01T11:17:12;8.00;;;4.38;;
30605;SDS011;17371;51.328;3.860;2023-03-01T11:19:40;7.70;;;4.07;;
30605;SDS011;17371;51.328;3.860;2023-03-01T11:22:07;7.95;;;4.22;;
30605;SDS011;17371;51.328;3.860;2023-03-01T11:24:39;7.18;;;4.63;;
30605;SDS011;17371;51.328;3.860;2023-03-01T11:27:08;8.52;;;4.15;;
30605;SDS011;17371;51.328;3.860;2023-03-01T11:29:41;6.95;;;4.22;;
30605;SDS011;17371;51.328;3.860;2023-03-01T11:32:10;6.78;;;4.35;;
30605;SDS011;17371;51.328;3.860;2023-03-01T11:34:38;9.30;;;4.83;;
30605;SDS011;17371;51.328;3.860;2023-03-01T11:37:19;8.15;;;4.68;;
30605;SDS011;17371;51.328;3.860;2023-03-01T11:39:51;6.95;;;4.43;;
30605;SDS011;17371;51.328;3.860;2023-03-01T11:42:20;9.00;;;5.07;;
30605;SDS011;17371;51.328;3.860;2023-03-01T11:44:50;6.55;;;3.20;;
30605;SDS011;17371;51.328;3.860;2023-03-01T11:47:22;7.03;;;4.40;;
30605;SDS011;17371;51.328;3.860;2023-03-01T11:52:43;7.60;;;4.35;;
30605;SDS011;17371;51.328;3.860;2023-03-01T11:55:21;8.15;;;4.80;;
30605;SDS011;17371;51.328;3.860;2023-03-01T11:58:03;5.35;;;3.78;;
30605;SDS011;17371;51.328;3.860;2023-03-01T12:00:42;9.10;;;4.43;;
30605;SDS011;17371;51.328;3.860;2023-03-01T12:03:21;7.32;;;4.38;;
30605;SDS011;17371;51.328;3.860;2023-03-01T12:06:04;7.07;;;4.03;;
30605;SDS011;17371;51.328;3.860;2023-03-01T12:08:41;7.65;;;4.25;;
30605;SDS011;17371;51.328;3.860;2023-03-01T12:11:12;6.03;;;3.05;;
30605;SDS011;17371;51.328;3.860;2023-03-01T12:13:52;9.23;;;4.73;;
30605;SDS011;17371;51.328;3.860;2023-03-01T12:16:28;10.70;;;4.72;;
30605;SDS011;17371;51.328;3.860;2023-03-01T12:19:07;11.35;;;5.75;;
30605;SDS011;17371;51.328;3.860;2023-03-01T12:21:42;5.53;;;3.53;;
30605;SDS011;17371;51.328;3.860;2023-03-01T12:24:28;8.00;;;4.80;;
30605;SDS011;17371;51.328;3.860;2023-03-01T12:27:09;8.30;;;4.53;;
30605;SDS011;17371;51.328;3.860;2023-03-01T12:29:44;7.30;;;4.50;;
30605;SDS011;17371;51.328;3.860;2023-03-01T12:32:15;8.82;;;5.05;;
30605;SDS011;17371;51.328;3.860;2023-03-01T12:35:02;10.95;;;5.90;;
30605;SDS011;17371;51.328;3.860;2023-03-01T12:37:36;9.90;;;5.68;;
30605;SDS011;17371;51.328;3.860;2023-03-01T12:40:13;10.00;;;6.00;;
30605;SDS011;17371;51.328;3.860;2023-03-01T12:42:54;9.50;;;4.50;;
30605;SDS011;17371;51.328;3.860;2023-03-01T12:45:27;8.95;;;5.00;;
30605;SDS011;17371;51.328;3.860;2023-03-01T12:48:05;7.97;;;4.10;;
30605;SDS011;17371;51.328;3.860;2023-03-01T12:50:38;7.72;;;4.85;;
30605;SDS011;17371;51.328;3.860;2023-03-01T12:53:05;7.57;;;4.47;;
30605;SDS011;17371;51.328;3.860;2023-03-01T12:55:33;9.40;;;5.07;;
30605;SDS011;17371;51.328;3.860;2023-03-01T12:58:04;7.82;;;4.72;;
30605;SDS011;17371;51.328;3.860;2023-03-01T13:00:34;7.53;;;4.15;;
30605;SDS011;17371;51.328;3.860;2023-03-01T13:03:04;7.53;;;4.18;;
30605;SDS011;17371;51.328;3.860;2023-03-01T13:05:34;6.83;;;4.97;;
30605;SDS011;17371;51.328;3.860;2023-03-01T13:08:06;8.77;;;5.03;;
30605;SDS011;17371;51.328;3.860;2023-03-01T13:10:39;11.18;;;5.10;;
30605;SDS011;17371;51.328;3.860;2023-03-01T13:13:23;7.78;;;4.55;;
30605;SDS011;17371;51.328;3.860;2023-03-01T13:15:50;9.00;;;5.55;;
30605;SDS011;17371;51.328;3.860;2023-03-01T13:18:28;8.83;;;4.77;;
30605;SDS011;17371;51.328;3.860;2023-03-01T13:20:55;8.88;;;5.43;;
30605;SDS011;17371;51.328;3.860;2023-03-01T13:23:26;9.25;;;4.85;;
30605;SDS011;17371;51.328;3.860;2023-03-01T13:26:00;9.93;;;4.70;;
30605;SDS011;17371;51.328;3.860;2023-03-01T13:28:39;9.23;;;5.13;;
30605;SDS011;17371;51.328;3.860;2023-03-01T13:31:06;6.33;;;4.47;;
30605;SDS011;17371;51.328;3.860;2023-03-01T13:33:34;5.43;;;3.30;;
30605;SDS011;17371;51.328;3.860;2023-03-01T13:36:05;8.15;;;4.93;;
30605;SDS011;17371;51.328;3.860;2023-03-01T13:38:39;10.20;;;5.88;;
30605;SDS011;17371;51.328;3.860;2023-03-01T13:41:10;8.18;;;5.15;;
30605;SDS011;17371;51.328;3.860;2023-03-01T13:43:36;6.97;;;4.23;;
30605;SDS011;17371;51.328;3.860;2023-03-01T13:46:07;7.72;;;4.82;;
30605;SDS011;17371;51.328;3.860;2023-03-01T13:48:34;8.60;;;4.80;;
30605;SDS011;17371;51.328;3.860;2023-03-01T13:51:00;9.10;;;4.82;;
30605;SDS011;17371;51.328;3.860;2023-03-01T13:53:29;9.57;;;5.37;;
30605;SDS011;17371;51.328;3.860;2023-03-01T13:55:57;8.82;;;5.82;;
30605;SDS011;17371;51.328;3.860;2023-03-01T13:58:26;10.68;;;4.60;;
30605;SDS011;17371;51.328;3.860;2023-03-01T14:00:58;7.65;;;4.22;;
30605;SDS011;17371;51.328;3.860;2023-03-01T14:03:25;10.27;;;6.07;;
30605;SDS011;17371;51.328;3.860;2023-03-01T14:05:58;10.33;;;5.23;;
30605;SDS011;17371;51.328;3.860;2023-03-01T14:08:26;9.18;;;5.05;;
30605;SDS011;17371;51.328;3.860;2023-03-01T14:11:08;8.30;;;4.95;;
30605;SDS011;17371;51.328;3.860;2023-03-01T14:13:52;7.00;;;4.78;;
30605;SDS011;17371;51.328;3.860;2023-03-01T14:16:27;11.90;;;5.93;;
30605;SDS011;17371;51.328;3.860;2023-03-01T14:19:02;7.63;;;4.27;;
30605;SDS011;17371;51.328;3.860;2023-03-01T14:21:34;7.57;;;5.93;;
30605;SDS011;17371;51.328;3.860;2023-03-01T14:23:59;9.53;;;6.53;;
30605;SDS011;17371;51.328;3.860;2023-03-01T14:26:25;8.40;;;5.72;;
30605;SDS011;17371;51.328;3.860;2023-03-01T14:28:51;9.77;;;5.13;;
30605;SDS011;17371;51.328;3.860;2023-03-01T14:31:35;9.77;;;5.00;;
30605;SDS011;17371;51.328;3.860;2023-03-01T14:34:01;8.10;;;4.47;;
30605;SDS011;17371;51.328;3.860;2023-03-01T14:36:27;6.27;;;3.83;;
30605;SDS011;17371;51.328;3.860;2023-03-01T14:38:54;9.80;;;4.70;;
30605;SDS011;17371;51.328;3.860;2023-03-01T14:41:20;7.30;;;4.20;;
30605;SDS011;17371;51.328;3.860;2023-03-01T14:43:46;6.65;;;4.35;;
30605;SDS011;17371;51.328;3.860;2023-03-01T14:46:19;10.43;;;6.13;;